Time;durP1;ratioP1;P1;durP2;ratioP2;P2;SDS_P1;SDS_P2;PMS_P1;PMS_P2;Temp;Humidity;BMP_temperature;BMP_pressure;BME280_temperature;BME280_humidity;BME280_pressure;Samples;Min_cycle;Max_cycle;Signal;HPM_P1;HPM_P2
2023/09/03 00:02:25;;;;;;;5.05;1.92;;;;;;;;;;10423180;22;20094;-63
2023/09/03 00:06:26;;;;;;;2.80;2.30;;;;;;;;;;10426037;22;19999;-62
2023/09/03 00:10:26;;;;;;;3.65;2.35;;;;;;;;;;10425667;22;20724;-63
2023/09/03 00:14:27;;;;;;;5.03;2.67;;;;;;;;;;10425934;22;20091;-64
2023/09/03 00:18:27;;;;;;;3.58;2.67;;;;;;;;;;10425010;22;20014;-62
2023/09/03 00:22:27;;;;;;;4.10;2.92;;;;;;;;;;10425031;22;20070;-63
2023/09/03 00:26:27;;;;;;;5.75;2.67;;;;;;;;;;10423566;22;19995;-63
2023/09/03 00:30:28;;;;;;;5.57;3.22;;;;;;;;;;10423717;22;20007;-63
2023/09/03 00:34:28;;;;;;;4.45;2.88;;;;;;;;;;10420284;22;20435;-63
2023/09/03 00:38:28;;;;;;;4.57;2.88;;;;;;;;;;10424495;22;20098;-63
2023/09/03 00:42:28;;;;;;;5.38;2.83;;;;;;;;;;10424037;22;19999;-63
2023/09/03 00:46:29;;;;;;;5.13;2.90;;;;;;;;;;10425445;22;20007;-62
2023/09/03 00:50:30;;;;;;;3.88;3.10;;;;;;;;;;10426435;22;20739;-62
2023/09/03 00:54:30;;;;;;;4.60;3.10;;;;;;;;;;10425387;22;20727;-63
2023/09/03 00:58:30;;;;;;;3.90;2.95;;;;;;;;;;10423922;22;20428;-63
2023/09/03 01:02:31;;;;;;;3.58;2.97;;;;;;;;;;10424501;22;20022;-63
2023/09/03 01:06:31;;;;;;;7.38;3.05;;;;;;;;;;10424769;22;20018;-63
2023/09/03 01:10:37;;;;;;;2.70;2.50;;;;;;;;;;10427033;22;19994;-63
2023/09/03 01:14:56;;;;;;;4.10;2.90;;;;;;;;;;10431295;22;20014;-63
2023/09/03 01:18:59;;;;;;;4.50;2.70;;;;;;;;;;10431337;22;20006;-63
2023/09/03 01:22:59;;;;;;;4.13;2.55;;;;;;;;;;10432787;22;20002;-63
2023/09/03 01:27:23;;;;;;;2.97;2.67;;;;;;;;;;10436081;22;19991;-62
2023/09/03 01:31:24;;;;;;;4.05;2.47;;;;;;;;;;10431401;22;20031;-63
2023/09/03 01:35:24;;;;;;;2.33;2.13;;;;;;;;;;10432596;22;20081;-63
2023/09/03 01:39:25;;;;;;;3.15;2.38;;;;;;;;;;10430128;22;20352;-63
2023/09/03 01:43:25;;;;;;;7.95;2.20;;;;;;;;;;10432998;22;20003;-63
2023/09/03 01:47:32;;;;;;;5.43;2.28;;;;;;;;;;10435974;22;20677;-63
2023/09/03 01:51:41;;;;;;;2.85;1.80;;;;;;;;;;10432615;22;20446;-63
2023/09/03 01:55:44;;;;;;;2.33;1.80;;;;;;;;;;10431342;22;19998;-63
2023/09/03 01:59:55;;;;;;;2.58;1.70;;;;;;;;;;10435369;22;20427;-63
2023/09/03 02:03:55;;;;;;;3.20;2.00;;;;;;;;;;10434302;22;20118;-62
2023/09/03 02:07:55;;;;;;;2.30;1.77;;;;;;;;;;10432719;22;19995;-62
2023/09/03 02:11:57;;;;;;;1.97;1.70;;;;;;;;;;10432864;22;19999;-62
2023/09/03 02:15:58;;;;;;;3.53;1.52;;;;;;;;;;10432104;22;20026;-64
2023/09/03 02:19:58;;;;;;;1.65;1.55;;;;;;;;;;10432748;22;20078;-63
2023/09/03 02:23:58;;;;;;;2.58;1.42;;;;;;;;;;10431235;22;20094;-63
2023/09/03 02:27:59;;;;;;;2.83;1.80;;;;;;;;;;10434522;22;20003;-63
2023/09/03 02:31:59;;;;;;;1.65;1.40;;;;;;;;;;10429055;22;20014;-63
2023/09/03 02:35:59;;;;;;;1.70;1.20;;;;;;;;;;10429465;22;20026;-64
2023/09/03 02:40:00;;;;;;;2.38;1.33;;;;;;;;;;10400830;22;20126;-62
2023/09/03 02:44:01;;;;;;;1.40;1.30;;;;;;;;;;10405413;22;19999;-62
2023/09/03 02:48:02;;;;;;;2.00;1.50;;;;;;;;;;10430582;22;20092;-62
2023/09/03 02:52:02;;;;;;;2.20;1.30;;;;;;;;;;10431918;22;20077;-63
2023/09/03 02:56:02;;;;;;;3.30;1.30;;;;;;;;;;10431974;22;20337;-63
2023/09/03 03:00:04;;;;;;;4.82;1.55;;;;;;;;;;10432153;22;20268;-64
2023/09/03 03:04:04;;;;;;;3.05;1.30;;;;;;;;;;10379469;22;20023;-63
2023/09/03 03:08:05;;;;;;;1.50;1.40;;;;;;;;;;10378500;22;20745;-63
2023/09/03 03:12:05;;;;;;;1.52;1.42;;;;;;;;;;10378064;22;19999;-63
2023/09/03 03:16:06;;;;;;;1.83;1.20;;;;;;;;;;10391880;22;20015;-63
2023/09/03 03:20:07;;;;;;;1.55;1.38;;;;;;;;;;10430250;22;20045;-63
2023/09/03 03:24:08;;;;;;;2.42;1.30;;;;;;;;;;10428310;22;20131;-63
2023/09/03 03:28:08;;;;;;;2.45;1.40;;;;;;;;;;10431470;22;20010;-63
2023/09/03 03:32:09;;;;;;;2.63;1.30;;;;;;;;;;10431340;22;20674;-63
2023/09/03 03:36:11;;;;;;;1.38;1.20;;;;;;;;;;10432137;22;20007;-63
2023/09/03 03:40:11;;;;;;;2.13;1.40;;;;;;;;;;10428137;22;19999;-63
2023/09/03 03:44:12;;;;;;;2.13;1.42;;;;;;;;;;10431738;22;20003;-62
2023/09/03 03:48:12;;;;;;;1.33;1.23;;;;;;;;;;10403698;22;20011;-63
2023/09/03 03:52:12;;;;;;;1.40;1.30;;;;;;;;;;10431556;22;20221;-64
2023/09/03 03:56:13;;;;;;;1.43;1.23;;;;;;;;;;10431691;22;20011;-63
2023/09/03 04:00:13;;;;;;;1.10;1.00;;;;;;;;;;10431085;22;20304;-63
2023/09/03 04:04:14;;;;;;;1.35;1.20;;;;;;;;;;10433080;22;20018;-63
2023/09/03 04:08:14;;;;;;;1.33;1.15;;;;;;;;;;10433733;22;20737;-63
2023/09/03 04:12:14;;;;;;;1.70;1.08;;;;;;;;;;10434461;22;20024;-63
2023/09/03 04:16:15;;;;;;;4.28;1.10;;;;;;;;;;10432087;22;20018;-64
2023/09/03 04:20:15;;;;;;;1.42;1.00;;;;;;;;;;10432791;22;20034;-64
2023/09/03 04:24:16;;;;;;;2.13;1.10;;;;;;;;;;10432166;22;20487;-63
2023/09/03 04:28:16;;;;;;;1.38;0.88;;;;;;;;;;10433779;22;20626;-63
2023/09/03 04:32:16;;;;;;;2.95;1.10;;;;;;;;;;10431380;22;20044;-63
2023/09/03 04:36:16;;;;;;;1.63;1.23;;;;;;;;;;10431023;22;20002;-63
2023/09/03 04:40:17;;;;;;;1.40;1.30;;;;;;;;;;10428509;22;20213;-63
2023/09/03 04:44:17;;;;;;;2.10;1.10;;;;;;;;;;10433480;22;20094;-63
2023/09/03 04:48:18;;;;;;;2.88;1.30;;;;;;;;;;10429241;22;20015;-63
2023/09/03 04:52:18;;;;;;;1.23;1.15;;;;;;;;;;10431289;22;20467;-64
2023/09/03 04:56:18;;;;;;;2.50;1.10;;;;;;;;;;10432664;22;19999;-63
2023/09/03 05:00:18;;;;;;;1.00;1.00;;;;;;;;;;10428917;22;20034;-63
2023/09/03 05:04:19;;;;;;;1.40;1.30;;;;;;;;;;10432295;22;20760;-63
2023/09/03 05:08:19;;;;;;;1.40;1.30;;;;;;;;;;10430402;22;20021;-63
2023/09/03 05:12:19;;;;;;;1.45;1.33;;;;;;;;;;10430603;22;20489;-63
2023/09/03 05:16:19;;;;;;;2.25;1.10;;;;;;;;;;10428781;22;20019;-63
2023/09/03 05:20:20;;;;;;;1.30;1.20;;;;;;;;;;10431111;22;20048;-63
2023/09/03 05:24:20;;;;;;;3.63;1.30;;;;;;;;;;10427253;22;20023;-63
2023/09/03 05:28:20;;;;;;;2.40;1.33;;;;;;;;;;10432436;22;19995;-63
2023/09/03 05:32:20;;;;;;;1.42;1.20;;;;;;;;;;10428220;22;20007;-63
2023/09/03 05:36:20;;;;;;;2.47;1.42;;;;;;;;;;10429434;22;19999;-64
2023/09/03 05:40:21;;;;;;;2.13;1.20;;;;;;;;;;10429792;22;20006;-63
2023/09/03 05:44:21;;;;;;;2.83;1.30;;;;;;;;;;10431515;22;20007;-63
2023/09/03 05:48:21;;;;;;;2.05;1.25;;;;;;;;;;10430503;22;20288;-63
2023/09/03 05:52:21;;;;;;;2.50;1.20;;;;;;;;;;10430745;22;20005;-62
2023/09/03 05:56:22;;;;;;;2.57;1.30;;;;;;;;;;10431166;22;20007;-62
2023/09/03 06:00:22;;;;;;;1.90;1.30;;;;;;;;;;10433126;22;20221;-63
2023/09/03 06:04:22;;;;;;;1.13;1.03;;;;;;;;;;10433435;22;20009;-64
2023/09/03 06:08:22;;;;;;;2.78;1.30;;;;;;;;;;10431670;22;20003;-63
2023/09/03 06:12:23;;;;;;;1.38;1.10;;;;;;;;;;10431385;22;20238;-62
2023/09/03 06:16:23;;;;;;;1.80;1.30;;;;;;;;;;10433540;22;20080;-63
2023/09/03 06:20:23;;;;;;;1.25;1.10;;;;;;;;;;10433644;22;20002;-62
2023/09/03 06:24:24;;;;;;;1.67;1.10;;;;;;;;;;10432873;22;19999;-63
2023/09/03 06:28:26;;;;;;;3.77;2.67;;;;;;;;;;10433632;22;20829;-63
2023/09/03 06:32:27;;;;;;;2.90;2.70;;;;;;;;;;10431263;22;20030;-63
2023/09/03 06:36:28;;;;;;;1.50;1.40;;;;;;;;;;10430014;22;20674;-63
2023/09/03 06:40:28;;;;;;;1.17;1.17;;;;;;;;;;10430648;22;20007;-63
2023/09/03 06:44:28;;;;;;;1.38;1.05;;;;;;;;;;10430946;22;20874;-63
2023/09/03 06:48:28;;;;;;;1.77;1.20;;;;;;;;;;10432095;22;20015;-63
2023/09/03 06:52:29;;;;;;;2.28;1.25;;;;;;;;;;10430678;22;20034;-64
2023/09/03 06:56:29;;;;;;;1.35;1.20;;;;;;;;;;10428548;22;19999;-63
2023/09/03 07:00:29;;;;;;;1.10;1.10;;;;;;;;;;10402565;22;20102;-63
2023/09/03 07:04:30;;;;;;;2.25;1.00;;;;;;;;;;10430958;22;20097;-63
2023/09/03 07:08:30;;;;;;;2.10;1.10;;;;;;;;;;10430976;22;20010;-63
2023/09/03 07:12:30;;;;;;;2.17;1.10;;;;;;;;;;10429583;22;20003;-63
2023/09/03 07:16:30;;;;;;;2.25;1.30;;;;;;;;;;10431415;22;20034;-63
2023/09/03 07:20:30;;;;;;;2.00;1.30;;;;;;;;;;10430133;22;20006;-63
2023/09/03 07:24:31;;;;;;;1.10;1.10;;;;;;;;;;10430671;22;20344;-63
2023/09/03 07:28:31;;;;;;;2.90;1.33;;;;;;;;;;10431618;22;19994;-63
2023/09/03 07:32:31;;;;;;;2.30;1.40;;;;;;;;;;10425364;22;20934;-63
2023/09/03 07:36:32;;;;;;;1.65;1.30;;;;;;;;;;10425620;22;20034;-63
2023/09/03 07:40:32;;;;;;;1.05;1.05;;;;;;;;;;10424805;22;20051;-63
2023/09/03 07:44:32;;;;;;;2.20;1.40;;;;;;;;;;10427944;22;20002;-64
2023/09/03 07:48:34;;;;;;;3.35;1.67;;;;;;;;;;10425840;22;20151;-63
2023/09/03 07:52:34;;;;;;;1.77;1.20;;;;;;;;;;10426915;22;20006;-63
2023/09/03 07:56:34;;;;;;;1.65;1.25;;;;;;;;;;10428221;22;19995;-63
2023/09/03 08:00:35;;;;;;;1.13;1.03;;;;;;;;;;10426268;22;20295;-64
2023/09/03 08:04:35;;;;;;;1.40;0.97;;;;;;;;;;10430725;22;21070;-63
2023/09/03 08:08:35;;;;;;;2.57;1.23;;;;;;;;;;10429398;22;19991;-63
2023/09/03 08:12:36;;;;;;;3.25;1.60;;;;;;;;;;10430495;22;19999;-63
2023/09/03 08:16:36;;;;;;;2.80;1.80;;;;;;;;;;10431856;22;20056;-63
2023/09/03 08:20:36;;;;;;;2.25;2.03;;;;;;;;;;10428657;22;19999;-63
2023/09/03 08:24:36;;;;;;;3.28;2.92;;;;;;;;;;10431388;22;21114;-63
2023/09/03 08:28:36;;;;;;;4.60;3.55;;;;;;;;;;10432049;22;20021;-63
2023/09/03 08:32:37;;;;;;;5.38;3.97;;;;;;;;;;10427731;22;20021;-63
2023/09/03 08:36:37;;;;;;;5.37;4.83;;;;;;;;;;10428759;22;20052;-63
2023/09/03 08:40:37;;;;;;;4.75;3.80;;;;;;;;;;10430769;22;19995;-63
2023/09/03 08:44:49;;;;;;;4.63;4.10;;;;;;;;;;10429155;22;20009;-63
2023/09/03 08:48:49;;;;;;;4.60;4.20;;;;;;;;;;10432694;22;20416;-64
2023/09/03 08:52:52;;;;;;;5.20;3.93;;;;;;;;;;10430383;22;20667;-63
2023/09/03 08:56:52;;;;;;;4.87;4.33;;;;;;;;;;10434272;22;20259;-63
2023/09/03 09:00:55;;;;;;;4.55;4.15;;;;;;;;;;10429027;22;20014;-65
2023/09/03 09:04:56;;;;;;;4.28;3.88;;;;;;;;;;10429540;22;20003;-63
2023/09/03 09:08:57;;;;;;;5.70;4.80;;;;;;;;;;10429224;22;20010;-63
2023/09/03 09:13:05;;;;;;;6.20;4.22;;;;;;;;;;10430095;22;20001;-63
2023/09/03 09:17:10;;;;;;;5.50;4.68;;;;;;;;;;10428892;22;20439;-63
2023/09/03 09:21:11;;;;;;;6.70;3.97;;;;;;;;;;10429191;22;19995;-63
2023/09/03 09:25:17;;;;;;;4.82;4.30;;;;;;;;;;10428750;22;20240;-63
2023/09/03 09:29:19;;;;;;;4.95;4.45;;;;;;;;;;10429180;22;20511;-63
2023/09/03 09:33:20;;;;;;;5.05;4.38;;;;;;;;;;10430942;22;20092;-63
2023/09/03 09:37:20;;;;;;;8.05;4.30;;;;;;;;;;10433763;22;19999;-63
2023/09/03 09:41:22;;;;;;;4.35;3.95;;;;;;;;;;10432340;22;20310;-63
2023/09/03 09:45:22;;;;;;;4.50;4.03;;;;;;;;;;10432736;22;20101;-63
2023/09/03 09:49:22;;;;;;;5.05;4.65;;;;;;;;;;10433853;22;20699;-63
2023/09/03 09:53:24;;;;;;;5.33;4.77;;;;;;;;;;10433219;22;20007;-63
2023/09/03 09:57:24;;;;;;;5.25;4.75;;;;;;;;;;10433543;22;20030;-63
2023/09/03 10:01:27;;;;;;;5.93;4.93;;;;;;;;;;10431552;22;20015;-63
2023/09/03 10:05:27;;;;;;;5.32;4.70;;;;;;;;;;10433919;22;20007;-63
2023/09/03 10:09:28;;;;;;;4.53;4.13;;;;;;;;;;10430095;22;20045;-64
2023/09/03 10:13:31;;;;;;;4.18;3.80;;;;;;;;;;10433864;22;20229;-63
2023/09/03 10:17:33;;;;;;;4.00;3.60;;;;;;;;;;10432008;22;20530;-63
2023/09/03 10:21:34;;;;;;;4.78;3.97;;;;;;;;;;10432421;22;19999;-63
2023/09/03 10:25:35;;;;;;;3.90;3.60;;;;;;;;;;10428220;22;20021;-63
2023/09/03 10:29:36;;;;;;;4.90;3.78;;;;;;;;;;10431617;22;20347;-63
2023/09/03 10:33:39;;;;;;;3.80;3.50;;;;;;;;;;10430105;22;20931;-63
2023/09/03 10:37:41;;;;;;;3.97;3.58;;;;;;;;;;10430911;22;20756;-63
2023/09/03 10:41:42;;;;;;;4.15;3.75;;;;;;;;;;10431188;22;20014;-63
2023/09/03 10:46:02;;;;;;;5.43;3.35;;;;;;;;;;10432642;22;20003;-63
2023/09/03 10:50:03;;;;;;;3.25;2.97;;;;;;;;;;10429539;22;20034;-63
2023/09/03 10:54:15;;;;;;;3.90;3.60;;;;;;;;;;10431694;22;20013;-63
2023/09/03 10:58:21;;;;;;;3.30;3.00;;;;;;;;;;10404454;22;20466;-63
2023/09/03 11:02:25;;;;;;;3.70;3.40;;;;;;;;;;10431050;22;20038;-62
2023/09/03 11:06:31;;;;;;;4.68;3.22;;;;;;;;;;10432324;22;20056;-63
2023/09/03 11:10:37;;;;;;;4.57;3.63;;;;;;;;;;10429406;22;20296;-63
2023/09/03 11:14:38;;;;;;;4.47;3.60;;;;;;;;;;10432653;22;20075;-63
2023/09/03 11:18:46;;;;;;;3.50;3.20;;;;;;;;;;10432943;22;20014;-62
2023/09/03 11:22:46;;;;;;;3.65;3.03;;;;;;;;;;10430490;22;20002;-62
2023/09/03 11:27:02;;;;;;;4.38;3.60;;;;;;;;;;10433957;22;20090;-62
2023/09/03 11:31:03;;;;;;;4.07;3.67;;;;;;;;;;10428434;22;20010;-63
2023/09/03 11:35:03;;;;;;;4.15;3.72;;;;;;;;;;10427397;22;19998;-63
2023/09/03 11:39:12;;;;;;;3.60;3.30;;;;;;;;;;10428327;22;20013;-62
2023/09/03 11:43:13;;;;;;;3.13;2.92;;;;;;;;;;10429282;22;20078;-62
2023/09/03 11:47:13;;;;;;;4.20;3.40;;;;;;;;;;10432460;22;20011;-62
2023/09/03 11:51:33;;;;;;;3.30;3.00;;;;;;;;;;10426666;22;20030;-62
2023/09/03 11:55:39;;;;;;;4.70;2.85;;;;;;;;;;10428711;22;20098;-62
2023/09/03 11:59:40;;;;;;;3.50;3.20;;;;;;;;;;10429092;22;20002;-62
2023/09/03 12:03:40;;;;;;;3.50;3.20;;;;;;;;;;10430026;22;20023;-62
2023/09/03 12:07:41;;;;;;;3.30;2.77;;;;;;;;;;10430410;22;20098;-62
2023/09/03 12:11:41;;;;;;;6.87;3.20;;;;;;;;;;10402670;22;20039;-62
2023/09/03 12:15:41;;;;;;;3.10;2.80;;;;;;;;;;10429186;22;20650;-62
2023/09/03 12:19:42;;;;;;;4.53;2.80;;;;;;;;;;10430858;22;20007;-62
2023/09/03 12:23:45;;;;;;;2.90;2.70;;;;;;;;;;10429134;22;20010;-62
2023/09/03 12:27:49;;;;;;;2.72;2.53;;;;;;;;;;10429356;22;20026;-62
2023/09/03 12:31:49;;;;;;;2.65;2.50;;;;;;;;;;10426106;22;20030;-62
2023/09/03 12:36:10;;;;;;;3.90;3.50;;;;;;;;;;10427241;22;19998;-61
2023/09/03 12:40:10;;;;;;;2.72;2.53;;;;;;;;;;10425065;22;20006;-63
2023/09/03 12:44:11;;;;;;;2.53;2.40;;;;;;;;;;10427515;22;20030;-62
2023/09/03 12:48:11;;;;;;;2.50;2.40;;;;;;;;;;10427255;22;20237;-61
2023/09/03 12:52:11;;;;;;;4.38;2.90;;;;;;;;;;10423739;22;19998;-63
2023/09/03 12:56:12;;;;;;;2.88;2.67;;;;;;;;;;10426052;22;20033;-62
2023/09/03 13:00:12;;;;;;;2.92;2.72;;;;;;;;;;10400569;22;20744;-63
2023/09/03 13:04:13;;;;;;;2.63;2.40;;;;;;;;;;10426486;22;20014;-63
2023/09/03 13:08:13;;;;;;;2.70;2.50;;;;;;;;;;10430460;22;20034;-63
2023/09/03 13:12:14;;;;;;;3.17;2.60;;;;;;;;;;10431729;22;20167;-62
2023/09/03 13:16:17;;;;;;;3.20;2.90;;;;;;;;;;10432067;22;20089;-62
2023/09/03 13:20:17;;;;;;;3.70;3.40;;;;;;;;;;10429225;22;20056;-62
2023/09/03 13:24:18;;;;;;;3.47;3.22;;;;;;;;;;10430089;22;20007;-61
2023/09/03 13:28:18;;;;;;;3.13;2.92;;;;;;;;;;10431779;22;20074;-61
2023/09/03 13:32:18;;;;;;;3.88;2.70;;;;;;;;;;10428148;22;20109;-62
2023/09/03 13:36:18;;;;;;;2.90;2.70;;;;;;;;;;10426746;22;20113;-63
2023/09/03 13:40:18;;;;;;;3.30;2.90;;;;;;;;;;10427418;22;20003;-62
2023/09/03 13:44:19;;;;;;;2.85;2.65;;;;;;;;;;10428002;22;20010;-61
2023/09/03 13:48:19;;;;;;;5.55;3.10;;;;;;;;;;10427906;22;20018;-61
2023/09/03 13:52:19;;;;;;;2.78;2.58;;;;;;;;;;10426400;22;20007;-61
2023/09/03 13:56:19;;;;;;;2.85;2.65;;;;;;;;;;10429962;22;20003;-61
2023/09/03 14:00:20;;;;;;;2.60;2.40;;;;;;;;;;10429263;22;20034;-61
2023/09/03 14:04:20;;;;;;;3.40;2.40;;;;;;;;;;10430774;22;20775;-61
2023/09/03 14:08:21;;;;;;;2.63;2.43;;;;;;;;;;10430061;22;20003;-61
2023/09/03 14:12:22;;;;;;;3.10;2.80;;;;;;;;;;10431756;22;20143;-61
2023/09/03 14:16:22;;;;;;;2.60;2.40;;;;;;;;;;10430886;22;20014;-62
2023/09/03 14:20:22;;;;;;;2.55;2.38;;;;;;;;;;10431569;22;20003;-61
2023/09/03 14:24:22;;;;;;;2.47;2.30;;;;;;;;;;10432377;22;20003;-61
2023/09/03 14:28:22;;;;;;;2.53;2.30;;;;;;;;;;10434184;22;20055;-61
2023/09/03 14:32:23;;;;;;;2.30;2.10;;;;;;;;;;10429762;22;20022;-61
2023/09/03 14:36:23;;;;;;;2.75;2.30;;;;;;;;;;10427344;22;20428;-62
2023/09/03 14:40:23;;;;;;;2.45;2.33;;;;;;;;;;10429607;22;20002;-61
2023/09/03 14:44:24;;;;;;;3.13;2.27;;;;;;;;;;10431427;22;20003;-62
2023/09/03 14:48:24;;;;;;;2.10;2.00;;;;;;;;;;10432281;22;20233;-62
2023/09/03 14:52:25;;;;;;;1.80;1.70;;;;;;;;;;10431965;22;20003;-61
2023/09/03 14:56:25;;;;;;;2.22;2.13;;;;;;;;;;10429469;22;20106;-62
2023/09/03 15:00:26;;;;;;;1.92;1.83;;;;;;;;;;10427548;22;20117;-61
2023/09/03 15:04:27;;;;;;;2.70;2.00;;;;;;;;;;10402872;22;20117;-61
2023/09/03 15:08:27;;;;;;;2.70;2.50;;;;;;;;;;10427070;22;20491;-61
2023/09/03 15:12:28;;;;;;;2.60;2.40;;;;;;;;;;10430061;22;20167;-61
2023/09/03 15:16:28;;;;;;;2.70;2.50;;;;;;;;;;10432087;22;20014;-60
2023/09/03 15:20:29;;;;;;;2.97;2.60;;;;;;;;;;10433090;22;20038;-60
2023/09/03 15:24:29;;;;;;;2.58;2.38;;;;;;;;;;10432674;22;20010;-61
2023/09/03 15:28:30;;;;;;;2.53;2.33;;;;;;;;;;10430186;22;20398;-61
2023/09/03 15:32:30;;;;;;;2.38;2.22;;;;;;;;;;10432560;22;20014;-60
2023/09/03 15:36:30;;;;;;;2.42;2.22;;;;;;;;;;10428260;22;20007;-60
2023/09/03 15:40:30;;;;;;;2.70;2.50;;;;;;;;;;10429812;22;20057;-61
2023/09/03 15:44:31;;;;;;;2.80;2.60;;;;;;;;;;10429294;22;21106;-60
2023/09/03 15:48:32;;;;;;;2.45;2.28;;;;;;;;;;10428801;22;20015;-60
2023/09/03 15:52:32;;;;;;;2.78;2.58;;;;;;;;;;10426989;22;20006;-61
2023/09/03 15:56:32;;;;;;;2.70;2.50;;;;;;;;;;10426006;22;20018;-61
2023/09/03 16:00:35;;;;;;;2.38;2.25;;;;;;;;;;10421512;22;20015;-61
2023/09/03 16:04:35;;;;;;;2.67;2.47;;;;;;;;;;10423936;22;20006;-61
2023/09/03 16:08:35;;;;;;;2.70;2.50;;;;;;;;;;10428174;22;20977;-61
2023/09/03 16:12:36;;;;;;;2.47;2.28;;;;;;;;;;10432434;22;19998;-61
2023/09/03 16:16:36;;;;;;;2.70;2.50;;;;;;;;;;10429212;22;20117;-60
2023/09/03 16:20:36;;;;;;;3.23;2.50;;;;;;;;;;10426732;22;20713;-60
2023/09/03 16:24:37;;;;;;;2.83;2.50;;;;;;;;;;10397223;22;20006;-61
2023/09/03 16:28:37;;;;;;;2.70;2.50;;;;;;;;;;10433105;22;19991;-61
2023/09/03 16:32:37;;;;;;;2.45;2.35;;;;;;;;;;10427662;22;20006;-60
2023/09/03 16:36:37;;;;;;;2.87;2.67;;;;;;;;;;10428855;22;20005;-60
2023/09/03 16:40:38;;;;;;;2.78;2.58;;;;;;;;;;10430913;22;20325;-61
2023/09/03 16:44:38;;;;;;;2.80;2.60;;;;;;;;;;10433394;22;20006;-61
2023/09/03 16:48:38;;;;;;;2.78;2.58;;;;;;;;;;10430297;22;20033;-60
2023/09/03 16:52:39;;;;;;;3.30;3.00;;;;;;;;;;10427648;22;20085;-61
2023/09/03 16:56:39;;;;;;;2.90;2.70;;;;;;;;;;10428886;22;20030;-60
2023/09/03 17:00:39;;;;;;;2.80;2.47;;;;;;;;;;10428786;22;20011;-60
2023/09/03 17:04:40;;;;;;;4.03;2.87;;;;;;;;;;10429372;22;20038;-61
2023/09/03 17:08:41;;;;;;;3.30;3.00;;;;;;;;;;10428243;22;20086;-60
2023/09/03 17:12:41;;;;;;;3.10;2.90;;;;;;;;;;10429923;22;20003;-60
2023/09/03 17:16:41;;;;;;;3.13;2.83;;;;;;;;;;10429133;22;20026;-60
2023/09/03 17:20:42;;;;;;;3.10;2.43;;;;;;;;;;10430542;22;20217;-61
2023/09/03 17:24:43;;;;;;;3.10;2.88;;;;;;;;;;10428783;22;20102;-60
2023/09/03 17:28:43;;;;;;;2.72;2.53;;;;;;;;;;10427553;22;20005;-61
2023/09/03 17:32:45;;;;;;;2.80;2.60;;;;;;;;;;10426658;22;20023;-60
2023/09/03 17:36:45;;;;;;;5.30;3.22;;;;;;;;;;10427327;22;19998;-60
2023/09/03 17:40:45;;;;;;;2.95;2.70;;;;;;;;;;10429910;22;20070;-60
2023/09/03 17:44:45;;;;;;;3.00;2.80;;;;;;;;;;10429494;22;20051;-60
2023/09/03 17:48:46;;;;;;;2.95;2.75;;;;;;;;;;10428560;22;20022;-61
2023/09/03 17:52:46;;;;;;;3.08;2.88;;;;;;;;;;10429940;22;20007;-61
2023/09/03 17:56:46;;;;;;;3.08;2.88;;;;;;;;;;10433042;22;19998;-60
2023/09/03 18:00:47;;;;;;;3.50;3.10;;;;;;;;;;10432007;22;20378;-60
2023/09/03 18:04:47;;;;;;;3.20;2.95;;;;;;;;;;10432598;22;20445;-60
2023/09/03 18:08:47;;;;;;;3.15;2.95;;;;;;;;;;10434590;22;19999;-61
2023/09/03 18:12:47;;;;;;;3.50;3.00;;;;;;;;;;10431675;22;20010;-61
2023/09/03 18:16:48;;;;;;;3.17;2.93;;;;;;;;;;10431770;22;20475;-61
2023/09/03 18:20:48;;;;;;;3.15;2.95;;;;;;;;;;10432409;22;20221;-61
2023/09/03 18:24:48;;;;;;;7.57;3.43;;;;;;;;;;10430679;22;19999;-61
2023/09/03 18:28:48;;;;;;;3.20;3.00;;;;;;;;;;10431787;22;20044;-61
2023/09/03 18:32:49;;;;;;;4.07;3.60;;;;;;;;;;10429458;22;20017;-61
2023/09/03 18:36:49;;;;;;;3.38;3.08;;;;;;;;;;10431103;22;20072;-61
2023/09/03 18:40:49;;;;;;;4.50;3.30;;;;;;;;;;10426278;22;20164;-62
2023/09/03 18:44:49;;;;;;;3.42;3.13;;;;;;;;;;10426394;22;20018;-62
2023/09/03 18:48:49;;;;;;;4.00;3.70;;;;;;;;;;10425940;22;20014;-61
2023/09/03 18:52:50;;;;;;;3.40;3.10;;;;;;;;;;10422254;22;19999;-61
2023/09/03 18:56:50;;;;;;;3.97;3.67;;;;;;;;;;10425124;22;20005;-61
2023/09/03 19:00:50;;;;;;;4.10;3.80;;;;;;;;;;10424092;22;20237;-62
2023/09/03 19:04:50;;;;;;;3.70;3.47;;;;;;;;;;10423943;22;20622;-62
2023/09/03 19:08:51;;;;;;;3.55;3.25;;;;;;;;;;10421025;22;20003;-61
2023/09/03 19:12:53;;;;;;;3.88;3.45;;;;;;;;;;10415596;22;20002;-61
2023/09/03 19:16:53;;;;;;;4.47;3.50;;;;;;;;;;10422140;22;20672;-61
2023/09/03 19:20:54;;;;;;;4.47;3.20;;;;;;;;;;10391812;22;20037;-61
2023/09/03 19:24:55;;;;;;;3.75;3.10;;;;;;;;;;10420116;22;20186;-62
2023/09/03 19:28:55;;;;;;;2.90;2.70;;;;;;;;;;10422520;22;20064;-61
2023/09/03 19:32:55;;;;;;;4.45;2.85;;;;;;;;;;10421350;22;20714;-61
2023/09/03 19:36:55;;;;;;;3.30;3.03;;;;;;;;;;10422140;22;20006;-61
2023/09/03 19:40:56;;;;;;;3.00;2.80;;;;;;;;;;10416658;22;20003;-61
2023/09/03 19:44:56;;;;;;;4.20;2.78;;;;;;;;;;10415824;22;20006;-61
2023/09/03 19:48:58;;;;;;;2.85;2.65;;;;;;;;;;10413870;22;20013;-62
2023/09/03 19:52:58;;;;;;;3.03;2.80;;;;;;;;;;10402948;22;19998;-61
2023/09/03 19:56:58;;;;;;;2.95;2.58;;;;;;;;;;10379854;22;20010;-61
2023/09/03 20:01:03;;;;;;;2.95;2.67;;;;;;;;;;10405913;22;20118;-62
2023/09/03 20:05:03;;;;;;;2.75;2.55;;;;;;;;;;10402128;22;20393;-62
2023/09/03 20:09:04;;;;;;;3.90;2.63;;;;;;;;;;10405699;22;20626;-62
2023/09/03 20:13:05;;;;;;;2.73;2.47;;;;;;;;;;10414818;22;20731;-61
2023/09/03 20:17:06;;;;;;;3.78;3.47;;;;;;;;;;10414102;22;20297;-62
2023/09/03 20:21:07;;;;;;;3.92;3.00;;;;;;;;;;10417420;22;20071;-61
2023/09/03 20:25:09;;;;;;;4.20;3.40;;;;;;;;;;10413157;22;20002;-61
2023/09/03 20:29:09;;;;;;;3.47;3.03;;;;;;;;;;10417125;22;20017;-61
2023/09/03 20:33:09;;;;;;;3.88;2.75;;;;;;;;;;10418161;22;20456;-62
2023/09/03 20:37:10;;;;;;;3.77;2.53;;;;;;;;;;10420158;22;20006;-61
2023/09/03 20:41:10;;;;;;;2.90;2.70;;;;;;;;;;10418769;22;19998;-61
2023/09/03 20:45:10;;;;;;;3.22;2.92;;;;;;;;;;10418226;22;19995;-61
2023/09/03 20:49:11;;;;;;;3.93;3.00;;;;;;;;;;10418763;22;20864;-61
2023/09/03 20:53:11;;;;;;;3.57;2.60;;;;;;;;;;10418094;22;20018;-62
2023/09/03 20:57:11;;;;;;;2.50;2.30;;;;;;;;;;10419989;22;20068;-62
2023/09/03 21:01:12;;;;;;;2.78;2.58;;;;;;;;;;10418789;22;20113;-61
2023/09/03 21:05:12;;;;;;;3.53;2.78;;;;;;;;;;10417556;22;19999;-62
2023/09/03 21:09:13;;;;;;;4.03;3.10;;;;;;;;;;10418804;22;20090;-62
2023/09/03 21:13:13;;;;;;;6.57;3.00;;;;;;;;;;10419731;22;20056;-61
2023/09/03 21:17:13;;;;;;;3.17;2.83;;;;;;;;;;10419509;22;20019;-61
2023/09/03 21:21:14;;;;;;;3.33;2.97;;;;;;;;;;10419701;22;19999;-62
2023/09/03 21:25:15;;;;;;;3.33;2.90;;;;;;;;;;10418657;22;20237;-61
2023/09/03 21:29:19;;;;;;;2.70;2.50;;;;;;;;;;10426007;22;20011;-61
2023/09/03 21:33:19;;;;;;;3.08;2.70;;;;;;;;;;10426565;22;20049;-61
2023/09/03 21:37:19;;;;;;;2.93;2.63;;;;;;;;;;10419049;22;20766;-61
2023/09/03 21:41:19;;;;;;;2.60;2.40;;;;;;;;;;10410748;22;20221;-62
2023/09/03 21:45:20;;;;;;;3.50;2.50;;;;;;;;;;10419994;22;20131;-61
2023/09/03 21:49:20;;;;;;;4.50;2.50;;;;;;;;;;10419481;22;19999;-62
2023/09/03 21:53:20;;;;;;;3.30;2.53;;;;;;;;;;10432068;22;20225;-61
2023/09/03 21:57:20;;;;;;;2.67;2.30;;;;;;;;;;10427256;22;19998;-62
2023/09/03 22:01:20;;;;;;;4.13;2.63;;;;;;;;;;10426135;22;20022;-61
2023/09/03 22:05:21;;;;;;;3.43;2.67;;;;;;;;;;10424688;22;20618;-62
2023/09/03 22:09:21;;;;;;;5.13;2.80;;;;;;;;;;10424650;22;19999;-62
2023/09/03 22:13:21;;;;;;;3.97;3.00;;;;;;;;;;10422146;22;20077;-61
2023/09/03 22:17:21;;;;;;;4.47;2.92;;;;;;;;;;10398221;22;20010;-61
2023/09/03 22:21:22;;;;;;;3.27;2.87;;;;;;;;;;10427933;22;20037;-61
2023/09/03 22:25:23;;;;;;;3.63;2.92;;;;;;;;;;10427007;22;20011;-61
2023/09/03 22:29:23;;;;;;;4.85;2.70;;;;;;;;;;10427284;22;20541;-61
2023/09/03 22:33:23;;;;;;;2.88;2.60;;;;;;;;;;10429272;22;21029;-62
2023/09/03 22:37:23;;;;;;;3.80;3.03;;;;;;;;;;10423012;22;19998;-61
2023/09/03 22:41:24;;;;;;;3.00;2.80;;;;;;;;;;10425690;22;20030;-61
2023/09/03 22:45:24;;;;;;;3.57;3.27;;;;;;;;;;10424813;22;20014;-61
2023/09/03 22:49:24;;;;;;;5.38;3.25;;;;;;;;;;10423883;22;20229;-62
2023/09/03 22:53:25;;;;;;;3.15;2.85;;;;;;;;;;10427107;22;20040;-61
2023/09/03 22:57:25;;;;;;;6.33;3.20;;;;;;;;;;10429687;22;20003;-61
2023/09/03 23:01:25;;;;;;;3.67;2.83;;;;;;;;;;10427432;22;20034;-61
2023/09/03 23:05:25;;;;;;;5.72;3.47;;;;;;;;;;10429423;22;20003;-61
2023/09/03 23:09:26;;;;;;;3.78;3.20;;;;;;;;;;10423319;22;20013;-61
2023/09/03 23:13:26;;;;;;;3.25;2.88;;;;;;;;;;10427831;22;20503;-61
2023/09/03 23:17:29;;;;;;;7.30;3.45;;;;;;;;;;10425770;22;20175;-62
2023/09/03 23:21:30;;;;;;;4.82;3.88;;;;;;;;;;10417863;22;20375;-63
2023/09/03 23:25:31;;;;;;;4.70;3.72;;;;;;;;;;10421677;22;20335;-62
2023/09/03 23:29:31;;;;;;;4.93;3.15;;;;;;;;;;10398123;22;20051;-61
2023/09/03 23:33:33;;;;;;;4.22;2.95;;;;;;;;;;10425947;22;20014;-62
2023/09/03 23:37:33;;;;;;;4.10;3.67;;;;;;;;;;10424777;22;20280;-61
2023/09/03 23:41:34;;;;;;;7.43;3.50;;;;;;;;;;10416859;22;20003;-61
2023/09/03 23:45:34;;;;;;;5.18;3.08;;;;;;;;;;10420513;22;20083;-64